Time;durP1;ratioP1;P1;durP2;ratioP2;P2;SDS_P1;SDS_P2;PMS_P1;PMS_P2;Temp;Humidity;BMP_temperature;BMP_pressure;BME280_temperature;BME280_humidity;BME280_pressure;Samples;Min_cycle;Max_cycle;Signal;HPM_P1;HPM_P2
2023/09/18 00:02:07;;;;;;;7.85;4.47;;;18.20;99.90;;;;;;5034291;28;20166;-85
2023/09/18 00:04:33;;;;;;;4.70;4.20;;;18.20;99.90;;;;;;5034078;28;20193;-86
2023/09/18 00:06:59;;;;;;;6.13;4.30;;;18.20;99.90;;;;;;5016157;28;20202;-87
2023/09/18 00:09:25;;;;;;;4.93;4.43;;;18.20;99.90;;;;;;5016200;28;20170;-86
2023/09/18 00:11:50;;;;;;;5.50;4.20;;;18.10;99.90;;;;;;5034289;28;20235;-86
2023/09/18 00:14:16;;;;;;;6.97;4.35;;;18.00;99.90;;;;;;5034056;28;20179;-86
2023/09/18 00:16:41;;;;;;;5.88;4.30;;;18.00;99.90;;;;;;5033940;28;20572;-87
2023/09/18 00:19:10;;;;;;;5.00;4.50;;;18.00;99.90;;;;;;5034103;28;20185;-86
2023/09/18 00:21:36;;;;;;;5.45;4.35;;;18.10;99.90;;;;;;5034554;28;20178;-86
2023/09/18 00:24:02;;;;;;;5.33;4.33;;;18.10;99.90;;;;;;5035343;28;20643;-86
2023/09/18 00:26:28;;;;;;;4.63;4.22;;;18.00;99.90;;;;;;5036193;28;20202;-86
2023/09/18 00:28:53;;;;;;;4.97;3.97;;;18.20;99.90;;;;;;5033548;28;20184;-87
2023/09/18 00:31:19;;;;;;;5.87;4.37;;;18.30;99.90;;;;;;5033748;28;20638;-85
2023/09/18 00:33:45;;;;;;;5.75;4.15;;;18.30;99.90;;;;;;5016029;28;20170;-86
2023/09/18 00:36:10;;;;;;;6.45;4.45;;;18.20;99.90;;;;;;5033938;28;20230;-86
2023/09/18 00:38:36;;;;;;;5.93;4.47;;;18.10;99.90;;;;;;5015803;28;20172;-86
2023/09/18 00:41:02;;;;;;;6.27;4.03;;;18.00;99.90;;;;;;5033683;28;20170;-86
2023/09/18 00:43:27;;;;;;;6.20;4.67;;;18.00;99.90;;;;;;5033578;28;20170;-85
2023/09/18 00:45:53;;;;;;;9.52;4.30;;;18.00;99.90;;;;;;5033164;28;20202;-86
2023/09/18 00:48:19;;;;;;;6.13;4.07;;;17.90;99.90;;;;;;5015662;28;20174;-85
2023/09/18 00:50:46;;;;;;;5.10;4.37;;;17.90;99.90;;;;;;5015673;28;20178;-85
2023/09/18 00:53:19;;;;;;;4.73;4.00;;;17.90;99.90;;;;;;5032239;28;20180;-85
2023/09/18 00:55:46;;;;;;;5.90;4.60;;;17.90;99.90;;;;;;5033461;28;20201;-86
2023/09/18 00:58:11;;;;;;;5.27;4.20;;;17.80;99.90;;;;;;5033256;28;20591;-85
2023/09/18 01:00:38;;;;;;;4.80;4.30;;;17.80;99.90;;;;;;5033194;28;20189;-85
2023/09/18 01:03:04;;;;;;;4.83;4.33;;;17.80;99.90;;;;;;5033435;28;20178;-86
2023/09/18 01:05:34;;;;;;;5.30;4.70;;;17.80;99.90;;;;;;5032824;28;20313;-86
2023/09/18 01:07:59;;;;;;;5.38;4.40;;;18.00;99.90;;;;;;5033248;28;20182;-86
2023/09/18 01:10:34;;;;;;;7.22;4.50;;;18.30;99.90;;;;;;5015500;28;20208;-85
2023/09/18 01:13:13;;;;;;;4.88;4.30;;;18.70;99.90;;;;;;5032988;28;20174;-86
2023/09/18 01:15:54;;;;;;;4.97;4.47;;;19.10;99.90;;;;;;5032438;28;20218;-85
2023/09/18 01:18:20;;;;;;;5.82;4.30;;;19.40;99.90;;;;;;5033273;28;20182;-86
2023/09/18 01:20:46;;;;;;;5.43;4.63;;;19.50;99.90;;;;;;5032149;28;20189;-85
2023/09/18 01:23:11;;;;;;;4.55;4.15;;;19.80;99.90;;;;;;5015503;28;20179;-85
2023/09/18 01:25:37;;;;;;;5.38;4.25;;;20.10;99.90;;;;;;5014955;28;20190;-86
2023/09/18 01:28:03;;;;;;;4.35;3.95;;;20.40;38.20;;;;;;5032691;28;20204;-86
2023/09/18 01:30:29;;;;;;;4.55;4.15;;;20.50;1.00;;;;;;5032691;28;20170;-88
2023/09/18 01:32:58;;;;;;;4.63;4.05;;;20.50;1.00;;;;;;5015025;28;20661;-86
2023/09/18 01:35:29;;;;;;;4.68;4.28;;;20.50;1.00;;;;;;5031457;28;20240;-85
2023/09/18 01:37:56;;;;;;;4.40;4.00;;;20.50;1.00;;;;;;5031306;28;20179;-85
2023/09/18 01:40:24;;;;;;;6.22;4.30;;;20.50;1.00;;;;;;5032457;28;20178;-85
2023/09/18 01:42:49;;;;;;;4.50;4.10;;;20.70;1.00;;;;;;5031449;28;20185;-86
2023/09/18 01:45:15;;;;;;;4.80;3.88;;;20.70;1.00;;;;;;5032470;28;20202;-85
2023/09/18 01:47:41;;;;;;;5.38;4.28;;;20.80;1.00;;;;;;5031251;28;20174;-85
2023/09/18 01:50:07;;;;;;;4.35;3.95;;;20.90;99.90;;;;;;5032520;28;20190;-86
2023/09/18 01:52:34;;;;;;;4.43;4.03;;;21.00;99.90;;;;;;5032279;28;20193;-85
2023/09/18 01:55:00;;;;;;;4.20;3.90;;;20.90;99.90;;;;;;5032159;28;20194;-87
2023/09/18 01:57:26;;;;;;;3.97;3.67;;;20.90;99.90;;;;;;5031429;28;20173;-85
2023/09/18 01:59:51;;;;;;;4.38;3.97;;;21.00;6.90;;;;;;5014682;28;20254;-85
2023/09/18 02:02:17;;;;;;;4.18;3.78;;;20.90;99.90;;;;;;5014587;28;20166;-85
2023/09/18 02:04:42;;;;;;;4.35;3.95;;;20.90;99.90;;;;;;5030971;28;20214;-86
2023/09/18 02:07:09;;;;;;;5.32;4.25;;;20.80;99.90;;;;;;5032104;28;20253;-88
2023/09/18 02:09:34;;;;;;;4.47;3.90;;;20.80;99.90;;;;;;5014425;28;20242;-86
2023/09/18 02:12:00;;;;;;;4.47;4.07;;;20.70;1.00;;;;;;5014573;28;20266;-86
2023/09/18 02:14:25;;;;;;;4.50;4.10;;;20.70;1.00;;;;;;5014581;28;20194;-85
2023/09/18 02:16:51;;;;;;;4.70;4.00;;;20.70;1.00;;;;;;5030871;28;20196;-86
2023/09/18 02:19:18;;;;;;;4.28;3.70;;;20.80;99.90;;;;;;5032180;28;20174;-85
2023/09/18 02:21:44;;;;;;;4.13;3.78;;;20.80;99.90;;;;;;5030617;28;20170;-85
2023/09/18 02:24:09;;;;;;;4.13;3.83;;;20.80;99.90;;;;;;5014004;28;20166;-86
2023/09/18 02:26:36;;;;;;;4.30;3.70;;;20.80;1.00;;;;;;5014255;28;20297;-86
2023/09/18 02:29:05;;;;;;;4.72;4.22;;;20.70;1.00;;;;;;5014377;28;20216;-85
2023/09/18 02:31:31;;;;;;;4.07;3.75;;;20.70;99.90;;;;;;5033043;28;20232;-87
2023/09/18 02:33:56;;;;;;;4.20;3.80;;;20.80;99.90;;;;;;5018412;28;20170;-86
2023/09/18 02:36:22;;;;;;;4.63;4.22;;;20.80;99.90;;;;;;5018317;28;20190;-86
2023/09/18 02:38:48;;;;;;;4.65;4.15;;;20.80;93.50;;;;;;5035783;28;20174;-85
2023/09/18 02:41:13;;;;;;;3.88;3.58;;;20.80;1.00;;;;;;5018014;28;20170;-86
2023/09/18 02:43:39;;;;;;;4.03;3.70;;;20.80;24.10;;;;;;5018121;28;20179;-86
2023/09/18 02:46:06;;;;;;;4.40;4.00;;;20.80;1.00;;;;;;5035722;28;20210;-86
2023/09/18 02:48:31;;;;;;;4.05;3.35;;;20.80;1.00;;;;;;5035766;28;20205;-88
2023/09/18 02:50:59;;;;;;;4.28;3.88;;;20.70;1.00;;;;;;5034567;28;20240;-85
2023/09/18 02:53:24;;;;;;;4.22;3.83;;;20.80;1.00;;;;;;5034314;28;20174;-86
2023/09/18 02:55:52;;;;;;;4.07;3.58;;;20.80;99.90;;;;;;5035920;28;20216;-86
2023/09/18 02:58:19;;;;;;;3.97;3.67;;;20.70;1.00;;;;;;5034609;28;20179;-85
2023/09/18 03:00:46;;;;;;;4.28;3.88;;;20.60;1.00;;;;;;5034287;28;20174;-86
2023/09/18 03:03:12;;;;;;;4.22;3.83;;;20.60;1.00;;;;;;5035337;28;20228;-88
2023/09/18 03:05:39;;;;;;;4.38;3.97;;;20.50;1.00;;;;;;5034019;28;20575;-86
2023/09/18 03:08:05;;;;;;;4.03;3.63;;;20.50;1.00;;;;;;5035224;28;20178;-86
2023/09/18 03:10:35;;;;;;;4.03;3.72;;;20.40;1.00;;;;;;5035489;28;20175;-86
2023/09/18 03:13:02;;;;;;;4.60;4.00;;;20.40;99.90;;;;;;5035537;28;20179;-86
2023/09/18 03:15:27;;;;;;;4.10;3.80;;;20.30;1.00;;;;;;5034076;28;20217;-85
2023/09/18 03:17:53;;;;;;;4.05;3.65;;;20.20;1.00;;;;;;5034148;28;20178;-86
2023/09/18 03:20:22;;;;;;;4.20;3.63;;;20.20;99.90;;;;;;5034982;28;20179;-86
2023/09/18 03:22:48;;;;;;;4.20;3.78;;;20.10;1.00;;;;;;5035416;28;20170;-86
2023/09/18 03:25:14;;;;;;;3.92;3.53;;;20.10;1.00;;;;;;5017418;28;20701;-85
2023/09/18 03:27:39;;;;;;;4.50;3.85;;;20.00;1.00;;;;;;5018167;28;20266;-86
2023/09/18 03:30:06;;;;;;;4.32;3.92;;;20.00;1.00;;;;;;5035651;28;20167;-86
2023/09/18 03:32:32;;;;;;;4.03;3.63;;;19.90;1.00;;;;;;5033600;28;20170;-85
2023/09/18 03:34:57;;;;;;;3.80;3.42;;;20.00;1.00;;;;;;5033731;28;20187;-86
2023/09/18 03:37:23;;;;;;;4.43;4.03;;;20.20;1.00;;;;;;5050734;28;20166;-85
2023/09/18 03:39:48;;;;;;;4.28;3.88;;;20.30;99.90;;;;;;5050736;28;20182;-87
2023/09/18 03:42:14;;;;;;;4.03;3.72;;;20.40;1.00;;;;;;5035095;28;20220;-85
2023/09/18 03:44:40;;;;;;;4.93;4.40;;;20.40;1.00;;;;;;5034598;28;20190;-85
2023/09/18 03:47:06;;;;;;;4.88;4.22;;;20.30;41.10;;;;;;5035805;28;20765;-85
2023/09/18 03:49:31;;;;;;;5.13;4.63;;;20.20;99.90;;;;;;5037247;28;20170;-87
2023/09/18 03:51:57;;;;;;;9.10;4.68;;;20.00;99.90;;;;;;5050553;28;20232;-86
2023/09/18 03:54:22;;;;;;;5.20;4.68;;;19.80;99.90;;;;;;5034671;28;20198;-87
2023/09/18 03:56:48;;;;;;;4.93;4.40;;;19.70;99.90;;;;;;5049720;28;20724;-86
2023/09/18 03:59:13;;;;;;;5.22;4.60;;;19.70;99.90;;;;;;5049943;28;20197;-87
2023/09/18 04:01:39;;;;;;;6.22;4.80;;;19.70;99.90;;;;;;5034122;28;20189;-87
2023/09/18 04:04:05;;;;;;;5.32;4.70;;;19.70;99.90;;;;;;5049603;28;20175;-86
2023/09/18 04:06:57;;;;;;;5.22;4.72;;;19.70;99.90;;;;;;5048740;28;20300;-86
2023/09/18 04:09:23;;;;;;;6.97;5.32;;;19.70;99.90;;;;;;5024748;28;20238;-86
2023/09/18 04:11:49;;;;;;;5.47;4.75;;;19.60;99.90;;;;;;5040789;28;20171;-86
2023/09/18 04:14:14;;;;;;;5.80;4.78;;;19.60;99.90;;;;;;5016025;28;20167;-86
2023/09/18 04:16:41;;;;;;;5.95;4.93;;;19.60;99.90;;;;;;5033972;28;20282;-86
2023/09/18 04:19:08;;;;;;;5.80;5.18;;;19.60;99.90;;;;;;5025680;28;20182;-86
2023/09/18 04:21:33;;;;;;;6.53;5.38;;;19.50;99.90;;;;;;5033886;28;20549;-86
2023/09/18 04:23:59;;;;;;;5.40;4.85;;;19.50;99.90;;;;;;5012976;28;20167;-86
2023/09/18 04:26:29;;;;;;;6.20;5.13;;;19.40;99.90;;;;;;5012813;28;20574;-86
2023/09/18 04:28:55;;;;;;;5.75;5.10;;;19.40;99.90;;;;;;5029335;28;20558;-86
2023/09/18 04:31:21;;;;;;;5.38;4.88;;;19.40;99.90;;;;;;5013836;28;20241;-86
2023/09/18 04:33:47;;;;;;;6.65;5.13;;;19.40;99.90;;;;;;5032489;28;20662;-86
2023/09/18 04:36:12;;;;;;;5.22;4.47;;;19.40;99.90;;;;;;5033550;28;20186;-88
2023/09/18 04:38:38;;;;;;;5.40;4.90;;;19.30;99.90;;;;;;5042878;28;20182;-86
2023/09/18 04:41:03;;;;;;;5.78;4.70;;;19.30;99.90;;;;;;5033459;28;20174;-86
2023/09/18 04:43:29;;;;;;;5.88;4.75;;;19.30;99.90;;;;;;5032579;28;20273;-86
2023/09/18 04:45:56;;;;;;;4.95;4.30;;;19.30;99.90;;;;;;5033285;28;20244;-85
2023/09/18 04:48:21;;;;;;;4.93;4.53;;;19.20;99.90;;;;;;5034010;28;20178;-84
2023/09/18 04:50:48;;;;;;;6.35;4.75;;;19.20;99.90;;;;;;5033135;28;20201;-85
2023/09/18 04:53:14;;;;;;;5.32;4.82;;;19.20;99.90;;;;;;5033766;28;20171;-84
2023/09/18 04:55:39;;;;;;;4.80;4.30;;;19.30;99.90;;;;;;5034347;28;20256;-84
2023/09/18 04:58:06;;;;;;;5.60;4.97;;;19.20;99.90;;;;;;5037769;28;20175;-86
2023/09/18 05:00:33;;;;;;;6.65;4.50;;;19.20;99.90;;;;;;5039243;28;20223;-84
2023/09/18 05:03:01;;;;;;;5.45;4.40;;;19.20;99.90;;;;;;5038407;28;20175;-84
2023/09/18 05:05:27;;;;;;;6.50;4.47;;;19.20;99.90;;;;;;5039238;28;20572;-83
2023/09/18 05:07:52;;;;;;;4.82;4.07;;;19.20;99.90;;;;;;5036587;28;20181;-84
2023/09/18 05:10:18;;;;;;;6.85;4.20;;;19.30;99.90;;;;;;5037314;28;20209;-86
2023/09/18 05:12:43;;;;;;;4.60;3.80;;;19.30;99.90;;;;;;5024025;28;20167;-84
2023/09/18 05:15:10;;;;;;;4.93;4.22;;;19.30;99.90;;;;;;5019595;28;20202;-81
2023/09/18 05:17:44;;;;;;;6.18;4.47;;;19.30;99.90;;;;;;5034978;28;20285;-84
2023/09/18 05:20:13;;;;;;;5.47;4.10;;;19.30;99.90;;;;;;5038489;28;20220;-83
2023/09/18 05:22:40;;;;;;;4.65;4.20;;;19.30;99.90;;;;;;5038085;28;20625;-84
2023/09/18 05:25:06;;;;;;;6.20;4.55;;;19.20;99.90;;;;;;5035652;28;20277;-84
2023/09/18 05:27:32;;;;;;;4.57;4.13;;;19.10;99.90;;;;;;5035738;28;20166;-81
2023/09/18 05:29:58;;;;;;;6.72;4.50;;;19.10;99.90;;;;;;5032728;28;20325;-86
2023/09/18 05:32:23;;;;;;;6.00;4.28;;;19.00;99.90;;;;;;5015508;28;20198;-85
2023/09/18 05:34:49;;;;;;;6.00;4.60;;;19.00;99.90;;;;;;5033587;28;20580;-84
2023/09/18 05:37:15;;;;;;;7.30;3.97;;;19.00;99.90;;;;;;5034343;28;20654;-83
2023/09/18 05:39:41;;;;;;;4.80;3.65;;;19.10;99.90;;;;;;5015696;28;20201;-84
2023/09/18 05:42:06;;;;;;;6.32;3.85;;;19.10;99.90;;;;;;5033856;28;20174;-84
2023/09/18 05:44:33;;;;;;;4.63;3.40;;;19.40;99.90;;;;;;5037107;28;20241;-81
2023/09/18 05:46:59;;;;;;;8.07;3.75;;;19.60;99.90;;;;;;5036887;28;20214;-83
2023/09/18 05:49:24;;;;;;;6.05;3.53;;;19.60;99.90;;;;;;5036372;28;20166;-83
2023/09/18 05:51:50;;;;;;;9.20;3.45;;;19.60;99.90;;;;;;5038182;28;20182;-84
2023/09/18 05:54:15;;;;;;;6.22;3.60;;;19.70;99.90;;;;;;5036995;28;20222;-86
2023/09/18 05:56:41;;;;;;;4.70;3.45;;;19.70;99.90;;;;;;5032138;28;20182;-86
2023/09/18 05:59:07;;;;;;;5.38;3.28;;;19.70;99.90;;;;;;5032875;28;20171;-85
2023/09/18 06:01:32;;;;;;;5.25;3.03;;;19.70;99.90;;;;;;5014710;28;20174;-85
2023/09/18 06:03:58;;;;;;;6.85;3.22;;;19.80;99.90;;;;;;5014542;28;20178;-86
2023/09/18 06:06:25;;;;;;;6.10;3.15;;;19.90;99.90;;;;;;5014430;28;20194;-84
2023/09/18 06:08:53;;;;;;;4.70;2.78;;;20.00;99.90;;;;;;5033005;28;20179;-84
2023/09/18 06:11:19;;;;;;;4.47;2.70;;;20.10;99.90;;;;;;5031305;28;20173;-85
2023/09/18 06:13:45;;;;;;;5.97;3.03;;;20.10;99.90;;;;;;5015691;28;20170;-84
2023/09/18 06:16:10;;;;;;;7.07;2.88;;;20.20;99.90;;;;;;5015573;28;20209;-84
2023/09/18 06:18:38;;;;;;;7.78;3.58;;;20.30;91.30;;;;;;5034481;28;20221;-86
2023/09/18 06:21:04;;;;;;;6.28;3.00;;;20.40;72.20;;;;;;5017841;28;20180;-84
2023/09/18 06:23:30;;;;;;;5.82;3.30;;;20.40;38.80;;;;;;5031572;28;20549;-85
2023/09/18 06:25:56;;;;;;;4.95;3.08;;;20.50;55.10;;;;;;5032774;28;20198;-85
2023/09/18 06:28:22;;;;;;;5.45;3.20;;;20.60;1.00;;;;;;5015050;28;20170;-86
2023/09/18 06:30:48;;;;;;;6.80;2.88;;;20.60;1.00;;;;;;5031342;28;20236;-85
2023/09/18 06:33:14;;;;;;;4.38;2.75;;;20.60;1.00;;;;;;5032644;28;20162;-85
2023/09/18 06:35:39;;;;;;;6.03;3.28;;;20.60;11.40;;;;;;5015520;28;20284;-85
2023/09/18 06:38:06;;;;;;;5.40;2.92;;;20.60;1.00;;;;;;5032430;28;20177;-85
2023/09/18 06:40:32;;;;;;;4.40;3.35;;;20.60;41.60;;;;;;5033431;28;20277;-86
2023/09/18 06:43:01;;;;;;;5.13;3.33;;;20.60;99.90;;;;;;5032892;28;20213;-87
2023/09/18 06:45:27;;;;;;;4.97;3.30;;;20.50;99.90;;;;;;5029998;28;20324;-85
2023/09/18 06:47:53;;;;;;;5.60;3.42;;;20.50;99.90;;;;;;5019872;28;20178;-84
2023/09/18 06:50:19;;;;;;;4.63;3.50;;;20.50;99.90;;;;;;5035467;28;20175;-85
2023/09/18 06:52:45;;;;;;;4.60;3.20;;;20.40;99.90;;;;;;5033004;28;20195;-84
2023/09/18 06:55:11;;;;;;;4.78;3.00;;;20.40;99.90;;;;;;5038141;28;20213;-84
2023/09/18 06:57:36;;;;;;;5.20;3.53;;;20.40;99.90;;;;;;5033154;28;20535;-85
2023/09/18 07:00:04;;;;;;;5.13;3.33;;;20.40;99.90;;;;;;5033540;28;20249;-85
2023/09/18 07:02:30;;;;;;;6.30;4.00;;;20.40;99.90;;;;;;5033432;28;20216;-85
2023/09/18 07:04:55;;;;;;;7.25;3.50;;;20.40;99.90;;;;;;5035780;28;20578;-85
2023/09/18 07:07:25;;;;;;;4.63;3.63;;;20.40;99.90;;;;;;5032606;28;20188;-85
2023/09/18 07:09:51;;;;;;;7.40;4.15;;;20.40;99.90;;;;;;5016029;28;20182;-85
2023/09/18 07:12:19;;;;;;;7.43;3.67;;;20.30;99.90;;;;;;5034128;28;20191;-85
2023/09/18 07:14:48;;;;;;;4.10;3.70;;;20.30;99.90;;;;;;5034408;28;20209;-87
2023/09/18 07:17:13;;;;;;;6.32;3.83;;;20.30;99.90;;;;;;5032360;28;20524;-84
2023/09/18 07:19:39;;;;;;;4.53;4.07;;;20.30;99.90;;;;;;5034267;28;20665;-86
2023/09/18 07:22:04;;;;;;;6.43;3.97;;;20.30;99.90;;;;;;5032184;28;20175;-84
2023/09/18 07:24:30;;;;;;;5.70;3.83;;;20.40;99.90;;;;;;5028507;28;20220;-84
2023/09/18 07:26:57;;;;;;;5.95;4.05;;;20.40;99.90;;;;;;5036313;28;20201;-85
2023/09/18 07:29:25;;;;;;;5.45;3.97;;;20.50;99.90;;;;;;5035191;28;20265;-86
2023/09/18 07:31:51;;;;;;;6.00;3.88;;;20.60;99.90;;;;;;5038245;28;20170;-85
2023/09/18 07:34:17;;;;;;;7.28;3.50;;;20.70;99.90;;;;;;5035405;28;20193;-84
2023/09/18 07:36:44;;;;;;;5.85;3.75;;;20.80;99.90;;;;;;5035060;28;20171;-85
2023/09/18 07:39:11;;;;;;;4.65;3.70;;;20.70;99.90;;;;;;5037164;28;20180;-85
2023/09/18 07:41:37;;;;;;;6.68;3.88;;;20.80;99.90;;;;;;5017639;28;20174;-85
2023/09/18 07:44:03;;;;;;;5.60;3.50;;;20.90;99.90;;;;;;5035087;28;20582;-85
2023/09/18 07:46:29;;;;;;;5.55;3.80;;;21.00;99.90;;;;;;5035172;28;20292;-84
2023/09/18 07:48:54;;;;;;;4.68;3.42;;;21.10;99.90;;;;;;5017348;28;20665;-85
2023/09/18 07:51:20;;;;;;;6.10;3.63;;;21.20;99.90;;;;;;5033954;28;20166;-84
2023/09/18 07:53:46;;;;;;;7.93;3.33;;;21.30;99.90;;;;;;5035328;28;20193;-84
2023/09/18 07:56:12;;;;;;;5.80;3.00;;;21.40;99.90;;;;;;5034529;28;20201;-86
2023/09/18 07:58:38;;;;;;;5.28;3.17;;;21.40;99.90;;;;;;5035916;28;20177;-84
2023/09/18 08:01:05;;;;;;;6.05;2.80;;;21.40;22.70;;;;;;5017634;28;20257;-85
2023/09/18 08:03:31;;;;;;;5.93;2.70;;;21.50;1.40;;;;;;5034625;28;20174;-85
2023/09/18 08:05:57;;;;;;;5.43;2.92;;;21.50;1.00;;;;;;5034943;28;20205;-85
2023/09/18 08:08:23;;;;;;;6.13;2.53;;;21.60;1.00;;;;;;5034720;28;20240;-85
2023/09/18 08:10:49;;;;;;;4.38;2.60;;;21.60;1.00;;;;;;5034894;28;20171;-85
2023/09/18 08:13:15;;;;;;;9.13;2.80;;;21.60;1.00;;;;;;5034725;28;20182;-85
2023/09/18 08:15:41;;;;;;;6.57;2.85;;;21.60;1.00;;;;;;5034658;28;20213;-85
2023/09/18 08:18:06;;;;;;;5.47;2.65;;;21.60;1.00;;;;;;5034193;28;20178;-85
2023/09/18 08:20:33;;;;;;;4.47;2.60;;;21.60;1.00;;;;;;5016524;28;20202;-84
2023/09/18 08:23:03;;;;;;;5.18;2.80;;;21.70;1.00;;;;;;5016698;28;20182;-85
2023/09/18 08:25:28;;;;;;;4.55;2.63;;;21.60;1.00;;;;;;5034110;28;20271;-85
2023/09/18 08:27:54;;;;;;;7.20;2.78;;;21.60;1.00;;;;;;5016504;28;20166;-85
2023/09/18 08:30:20;;;;;;;5.05;3.00;;;21.50;1.00;;;;;;5016289;28;20223;-85
2023/09/18 08:32:47;;;;;;;3.53;2.55;;;21.60;1.00;;;;;;5034455;28;20174;-84
2023/09/18 08:35:13;;;;;;;5.97;2.50;;;21.60;1.00;;;;;;5016404;28;20277;-84
2023/09/18 08:37:41;;;;;;;5.65;2.63;;;21.50;1.00;;;;;;5034190;28;20685;-85
2023/09/18 08:40:09;;;;;;;7.32;2.70;;;21.50;69.20;;;;;;5032828;28;20171;-87
2023/09/18 08:42:39;;;;;;;5.68;2.72;;;21.60;1.00;;;;;;5032822;28;20170;-84
2023/09/18 08:45:09;;;;;;;6.30;3.00;;;21.50;1.00;;;;;;5032522;28;20198;-85
2023/09/18 08:47:36;;;;;;;6.95;2.58;;;21.60;12.10;;;;;;5032238;28;20166;-84
2023/09/18 08:50:02;;;;;;;5.38;2.60;;;21.60;1.00;;;;;;5033849;28;20244;-86
2023/09/18 08:52:28;;;;;;;4.88;2.30;;;21.60;1.00;;;;;;5033893;28;20170;-87
2023/09/18 08:54:56;;;;;;;4.40;2.80;;;21.60;1.00;;;;;;5015732;28;20248;-85
2023/09/18 08:57:22;;;;;;;7.35;2.85;;;21.70;1.00;;;;;;5036338;28;20312;-86
2023/09/18 08:59:50;;;;;;;6.15;2.50;;;21.90;1.00;;;;;;5033936;28;20198;-85
2023/09/18 09:02:16;;;;;;;6.05;2.33;;;22.20;1.00;;;;;;5032973;28;20233;-86
2023/09/18 09:04:41;;;;;;;6.25;2.60;;;22.40;1.00;;;;;;5033610;28;20202;-85
2023/09/18 09:07:08;;;;;;;5.63;2.45;;;22.40;1.00;;;;;;5015635;28;20224;-85
2023/09/18 09:09:35;;;;;;;3.97;2.15;;;22.30;1.00;;;;;;5033357;28;20170;-85
2023/09/18 09:12:00;;;;;;;3.92;2.33;;;22.20;1.00;;;;;;5032217;28;20166;-85
2023/09/18 09:14:28;;;;;;;4.22;2.10;;;22.30;1.00;;;;;;5032992;28;20198;-83
2023/09/18 09:16:56;;;;;;;6.00;2.38;;;22.50;1.00;;;;;;5033350;28;20206;-86
2023/09/18 09:19:35;;;;;;;5.38;2.05;;;22.60;1.00;;;;;;5033726;28;20174;-85
2023/09/18 09:22:01;;;;;;;4.88;2.08;;;22.60;99.90;;;;;;5033345;28;20634;-85
2023/09/18 09:24:44;;;;;;;5.53;2.22;;;22.50;99.90;;;;;;5035978;28;20281;-85
2023/09/18 09:27:10;;;;;;;3.92;2.10;;;22.20;1.00;;;;;;5032404;28;20268;-84
2023/09/18 09:29:37;;;;;;;3.63;1.98;;;22.20;99.90;;;;;;5031888;28;20174;-86
2023/09/18 09:32:16;;;;;;;4.22;1.80;;;22.20;1.00;;;;;;5032024;28;20235;-84
2023/09/18 09:34:43;;;;;;;5.18;2.20;;;22.20;1.00;;;;;;5033357;28;20194;-85
2023/09/18 09:37:10;;;;;;;3.85;1.80;;;22.20;1.00;;;;;;5032314;28;20173;-86
2023/09/18 09:39:52;;;;;;;4.75;2.10;;;22.10;1.00;;;;;;5033199;28;20181;-85
2023/09/18 09:42:27;;;;;;;5.15;2.08;;;22.00;1.00;;;;;;5032139;28;20546;-85
2023/09/18 09:45:06;;;;;;;5.93;2.08;;;22.00;1.00;;;;;;5032700;28;20273;-86
2023/09/18 09:47:35;;;;;;;5.30;2.30;;;22.00;1.00;;;;;;5032588;28;20189;-86
2023/09/18 09:50:13;;;;;;;6.93;2.30;;;22.00;1.00;;;;;;5032447;28;20209;-85
2023/09/18 09:52:48;;;;;;;4.50;1.90;;;22.00;1.00;;;;;;5033236;28;20181;-85
2023/09/18 09:55:30;;;;;;;4.30;1.88;;;22.00;1.00;;;;;;5031409;28;20200;-85
2023/09/18 09:58:01;;;;;;;5.00;2.20;;;22.00;1.00;;;;;;5031246;28;20642;-85
2023/09/18 10:00:42;;;;;;;2.88;1.95;;;22.00;1.00;;;;;;5031326;28;20185;-85
2023/09/18 10:03:10;;;;;;;3.72;1.70;;;21.90;1.00;;;;;;5031543;28;20196;-86
2023/09/18 10:05:38;;;;;;;3.58;1.73;;;21.80;1.00;;;;;;5032328;28;20247;-85
2023/09/18 10:08:12;;;;;;;4.05;1.70;;;21.80;1.00;;;;;;5032433;28;20178;-85
2023/09/18 10:10:49;;;;;;;4.50;1.50;;;21.60;99.90;;;;;;5032354;28;20189;-87
2023/09/18 10:13:20;;;;;;;3.88;1.90;;;21.50;1.00;;;;;;5013982;28;20249;-85
2023/09/18 10:15:49;;;;;;;4.75;1.67;;;21.40;1.00;;;;;;5027773;28;20210;-85
2023/09/18 10:18:42;;;;;;;6.25;1.83;;;21.40;1.00;;;;;;5028159;28;20175;-85
2023/09/18 10:21:31;;;;;;;3.13;1.38;;;21.40;1.00;;;;;;5028379;28;20175;-85
2023/09/18 10:24:12;;;;;;;3.22;1.80;;;21.40;1.00;;;;;;5013241;28;20205;-84
2023/09/18 10:26:48;;;;;;;3.47;1.50;;;21.40;1.00;;;;;;5028675;28;20230;-87
2023/09/18 10:29:15;;;;;;;5.72;1.63;;;21.40;1.00;;;;;;5012761;28;20166;-85
2023/09/18 10:31:43;;;;;;;2.53;1.70;;;21.50;1.00;;;;;;5029465;28;20217;-85
2023/09/18 10:34:11;;;;;;;4.32;1.70;;;21.50;1.00;;;;;;5016098;28;20171;-85
2023/09/18 10:36:39;;;;;;;4.05;1.58;;;21.50;1.00;;;;;;5017060;28;20266;-87
2023/09/18 10:39:10;;;;;;;2.45;1.40;;;21.60;1.00;;;;;;5032701;28;20185;-85
2023/09/18 10:41:37;;;;;;;3.13;1.50;;;21.50;1.00;;;;;;5014725;28;20178;-82
2023/09/18 10:44:04;;;;;;;4.75;1.70;;;21.60;1.00;;;;;;5029359;28;20183;-84
2023/09/18 10:46:30;;;;;;;3.13;1.48;;;21.60;1.00;;;;;;5013891;28;20248;-88
2023/09/18 10:48:56;;;;;;;5.65;1.95;;;21.60;1.00;;;;;;5029068;28;20237;-83
2023/09/18 10:51:23;;;;;;;3.05;1.80;;;21.60;1.00;;;;;;5029353;28;20171;-83
2023/09/18 10:53:49;;;;;;;4.20;1.60;;;21.50;1.00;;;;;;5018526;28;20167;-85
2023/09/18 10:56:16;;;;;;;2.50;1.50;;;21.50;1.00;;;;;;5019491;28;20198;-83
2023/09/18 10:58:42;;;;;;;3.35;1.50;;;21.60;1.00;;;;;;5019772;28;20175;-83
2023/09/18 11:01:14;;;;;;;3.90;1.77;;;21.60;1.00;;;;;;5018828;28;20237;-83
2023/09/18 11:03:41;;;;;;;3.50;1.63;;;21.60;1.00;;;;;;5019065;28;20250;-82
2023/09/18 11:06:12;;;;;;;3.53;1.58;;;21.50;1.00;;;;;;5017475;28;20199;-84
2023/09/18 11:08:45;;;;;;;2.97;1.70;;;21.50;1.00;;;;;;5033315;28;20553;-83
2023/09/18 11:11:14;;;;;;;3.47;1.52;;;21.50;1.00;;;;;;5033499;28;20175;-83
2023/09/18 11:13:41;;;;;;;3.72;1.73;;;21.40;1.00;;;;;;5033786;28;20259;-82
2023/09/18 11:16:26;;;;;;;5.00;1.70;;;21.40;1.00;;;;;;5018753;28;20211;-82
2023/09/18 11:18:53;;;;;;;3.85;1.55;;;21.40;1.00;;;;;;5034493;28;20179;-84
2023/09/18 11:21:24;;;;;;;4.65;2.00;;;21.40;1.00;;;;;;5019288;28;20183;-83
2023/09/18 11:23:59;;;;;;;2.88;1.65;;;21.40;1.00;;;;;;5019746;28;20179;-83
2023/09/18 11:26:30;;;;;;;4.65;1.70;;;21.30;1.00;;;;;;5019679;28;20206;-82
2023/09/18 11:28:56;;;;;;;2.30;1.60;;;21.30;1.00;;;;;;5019811;28;20193;-83
2023/09/18 11:31:40;;;;;;;5.28;1.30;;;21.30;1.00;;;;;;5034120;28;20238;-83
2023/09/18 11:34:36;;;;;;;2.20;1.70;;;21.20;1.00;;;;;;5033304;28;20637;-83
2023/09/18 11:37:18;;;;;;;4.88;1.67;;;21.20;1.00;;;;;;5040524;28;20182;-82
2023/09/18 11:39:45;;;;;;;2.45;1.42;;;21.20;1.00;;;;;;5037782;28;20179;-85
2023/09/18 11:42:26;;;;;;;3.72;1.65;;;21.20;1.00;;;;;;5039192;28;20201;-82
2023/09/18 11:44:52;;;;;;;3.45;1.83;;;21.10;1.00;;;;;;5040093;28;20285;-82
2023/09/18 11:47:24;;;;;;;6.43;2.08;;;21.10;1.00;;;;;;5038555;28;20229;-82
2023/09/18 11:49:55;;;;;;;3.13;1.35;;;21.10;1.00;;;;;;5037333;28;20181;-83
2023/09/18 11:52:22;;;;;;;4.28;1.73;;;21.20;1.00;;;;;;5038031;28;20253;-83
2023/09/18 11:54:48;;;;;;;4.78;1.73;;;21.20;1.00;;;;;;5040255;28;20217;-82
2023/09/18 11:57:14;;;;;;;7.55;1.60;;;21.10;1.00;;;;;;5039248;28;20551;-82
2023/09/18 11:59:42;;;;;;;3.08;1.45;;;21.10;1.00;;;;;;5038565;28;20174;-83
2023/09/18 12:02:09;;;;;;;5.80;1.75;;;21.10;1.00;;;;;;5038902;28;20183;-83
2023/09/18 12:04:36;;;;;;;3.30;1.60;;;21.10;1.00;;;;;;5039288;28;20194;-84
2023/09/18 12:07:04;;;;;;;2.13;1.60;;;21.20;1.00;;;;;;5042088;28;20226;-87
2023/09/18 12:09:33;;;;;;;2.97;1.30;;;21.20;1.00;;;;;;5048990;28;20193;-82
2023/09/18 12:12:03;;;;;;;4.38;1.70;;;21.30;1.00;;;;;;5049807;28;20209;-86
2023/09/18 12:14:31;;;;;;;3.78;1.60;;;21.20;1.00;;;;;;5046465;28;20213;-83
2023/09/18 12:16:57;;;;;;;4.25;1.52;;;21.10;1.00;;;;;;5049798;28;20186;-81
2023/09/18 12:19:23;;;;;;;4.90;1.75;;;21.00;1.00;;;;;;5049493;28;20179;-83
2023/09/18 12:21:49;;;;;;;3.10;1.80;;;21.00;1.00;;;;;;5032353;28;20170;-82
2023/09/18 12:24:25;;;;;;;4.85;1.85;;;21.10;1.00;;;;;;5048762;28;20194;-82
2023/09/18 12:26:52;;;;;;;2.40;1.60;;;21.20;1.00;;;;;;5049310;28;20209;-82
2023/09/18 12:29:18;;;;;;;2.92;1.70;;;21.30;1.00;;;;;;5049378;28;20178;-83
2023/09/18 12:31:45;;;;;;;3.85;1.50;;;21.40;1.00;;;;;;5049101;28;20181;-83
2023/09/18 12:34:18;;;;;;;4.93;1.92;;;21.40;1.00;;;;;;5049300;28;20265;-83
2023/09/18 12:36:47;;;;;;;3.03;2.13;;;21.30;1.00;;;;;;5048788;28;20167;-82
2023/09/18 12:39:16;;;;;;;5.35;1.80;;;21.30;1.00;;;;;;5049387;28;20178;-83
2023/09/18 12:41:43;;;;;;;3.97;1.73;;;21.40;1.00;;;;;;5050375;28;20184;-82
2023/09/18 12:44:10;;;;;;;3.13;1.88;;;21.30;1.00;;;;;;5047649;28;20212;-82
2023/09/18 12:46:36;;;;;;;3.63;1.67;;;21.30;1.00;;;;;;5030999;28;20678;-82
2023/09/18 12:49:27;;;;;;;2.03;1.40;;;21.30;1.00;;;;;;5048622;28;20171;-82
2023/09/18 12:52:08;;;;;;;2.05;1.50;;;21.40;1.00;;;;;;5047552;28;20209;-82
2023/09/18 12:54:53;;;;;;;4.20;1.60;;;21.40;1.00;;;;;;5048637;28;20193;-83
2023/09/18 12:57:19;;;;;;;3.97;1.88;;;21.50;1.00;;;;;;5048309;28;20178;-81